Time;durP1;ratioP1;P1;durP2;ratioP2;P2;SDS_P1;SDS_P2;PMS_P1;PMS_P2;Temp;Humidity;BMP_temperature;BMP_pressure;BME280_temperature;BME280_humidity;BME280_pressure;Samples;Min_cycle;Max_cycle;Signal;HPM_P1;HPM_P2
2021/08/19 00:02:00;;;;;;;1.60;1.60;;;;;;;15.33;100.00;97995.47;5051564;28;20227;-70
2021/08/19 00:04:28;;;;;;;2.07;1.97;;;;;;;15.41;100.00;98001.69;5048676;28;20211;-71
2021/08/19 00:06:56;;;;;;;2.07;1.97;;;;;;;15.36;100.00;98006.81;5060978;28;20397;-71
2021/08/19 00:09:24;;;;;;;1.90;1.80;;;;;;;15.33;100.00;98000.81;5047180;28;20199;-70
2021/08/19 00:11:52;;;;;;;2.10;2.00;;;;;;;15.30;100.00;97993.19;5050848;28;20678;-69
2021/08/19 00:14:20;;;;;;;2.60;1.70;;;;;;;15.37;100.00;98003.09;5045727;28;20220;-69
2021/08/19 00:16:49;;;;;;;2.13;1.90;;;;;;;15.33;100.00;98000.00;5039301;28;20275;-69
2021/08/19 00:19:17;;;;;;;2.57;1.77;;;;;;;15.27;100.00;98004.25;5042135;28;20206;-70
2021/08/19 00:21:45;;;;;;;1.80;1.70;;;;;;;15.26;100.00;97991.13;5048607;28;20209;-70
2021/08/19 00:24:13;;;;;;;1.60;1.50;;;;;;;15.31;100.00;97986.00;5048729;28;20249;-71
2021/08/19 00:26:41;;;;;;;2.07;1.97;;;;;;;15.30;100.00;97992.38;5055544;28;20221;-70
2021/08/19 00:29:09;;;;;;;2.27;2.17;;;;;;;15.40;100.00;97987.50;5052316;28;20210;-69
2021/08/19 00:31:36;;;;;;;1.70;1.60;;;;;;;15.28;100.00;97987.22;5046178;28;20261;-71
2021/08/19 00:34:06;;;;;;;1.90;1.80;;;;;;;15.25;100.00;97994.81;5046942;28;20280;-70
2021/08/19 00:36:34;;;;;;;1.60;1.50;;;;;;;15.25;100.00;97984.94;5046796;28;20204;-71
2021/08/19 00:39:02;;;;;;;2.20;2.10;;;;;;;15.32;100.00;97990.34;5044684;28;20664;-71
2021/08/19 00:41:30;;;;;;;2.30;2.10;;;;;;;15.29;100.00;97983.53;5045308;28;20758;-71
2021/08/19 00:44:00;;;;;;;1.93;1.93;;;;;;;15.28;100.00;97979.22;5052737;28;20199;-70
2021/08/19 00:46:29;;;;;;;2.20;2.10;;;;;;;15.21;100.00;97973.00;5050304;28;20207;-71
2021/08/19 00:49:01;;;;;;;2.30;2.20;;;;;;;15.17;100.00;97972.59;5051625;28;20208;-71
2021/08/19 00:51:34;;;;;;;2.03;1.93;;;;;;;15.20;100.00;97974.03;5055429;28;20259;-71
2021/08/19 00:54:02;;;;;;;3.97;2.40;;;;;;;15.22;100.00;97966.63;5047197;28;20212;-70
2021/08/19 00:56:30;;;;;;;2.30;2.20;;;;;;;15.20;100.00;97960.69;5049632;28;20235;-70
2021/08/19 00:58:58;;;;;;;2.43;2.23;;;;;;;15.16;100.00;97964.75;5045631;28;20668;-70
2021/08/19 01:01:27;;;;;;;1.77;1.77;;;;;;;15.19;100.00;97961.69;5051872;28;20227;-70
2021/08/19 01:03:56;;;;;;;2.23;2.10;;;;;;;15.18;100.00;97962.72;5053597;28;20670;-71
2021/08/19 01:06:24;;;;;;;2.63;2.10;;;;;;;15.24;100.00;97956.59;5048588;28;20227;-71
2021/08/19 01:08:54;;;;;;;2.60;2.50;;;;;;;15.19;100.00;97967.03;5049566;28;20579;-71
2021/08/19 01:11:22;;;;;;;2.30;2.20;;;;;;;15.16;100.00;97970.94;5048488;28;20618;-71
2021/08/19 01:13:50;;;;;;;2.33;2.17;;;;;;;15.14;100.00;97972.94;5055270;28;20223;-71
2021/08/19 01:16:19;;;;;;;2.40;2.30;;;;;;;15.18;100.00;97968.91;5051940;28;20215;-71
2021/08/19 01:18:48;;;;;;;2.10;2.00;;;;;;;15.11;100.00;97967.19;5046770;28;20210;-70
2021/08/19 01:21:17;;;;;;;2.80;2.37;;;;;;;15.14;100.00;97961.47;5051518;28;20234;-70
2021/08/19 01:23:45;;;;;;;2.67;2.57;;;;;;;15.13;100.00;97965.16;5046002;28;20202;-70
2021/08/19 01:26:17;;;;;;;2.30;2.20;;;;;;;15.09;100.00;97958.56;5054115;28;20220;-71
2021/08/19 01:28:47;;;;;;;2.40;2.30;;;;;;;15.08;100.00;97960.38;5053504;28;20575;-71
2021/08/19 01:31:16;;;;;;;2.30;2.20;;;;;;;15.13;100.00;97960.63;5053141;28;20994;-70
2021/08/19 01:33:46;;;;;;;2.70;2.50;;;;;;;15.06;100.00;97959.75;5049551;28;20280;-68
2021/08/19 01:36:14;;;;;;;2.97;2.77;;;;;;;15.13;100.00;97959.81;5048927;28;20204;-71
2021/08/19 01:38:44;;;;;;;2.20;2.10;;;;;;;15.08;100.00;97955.03;5048776;28;20601;-71
2021/08/19 01:41:12;;;;;;;2.33;2.23;;;;;;;15.03;100.00;97955.66;5050265;28;20727;-70
2021/08/19 01:43:41;;;;;;;2.30;2.20;;;;;;;15.07;100.00;97957.91;5053498;28;20206;-70
2021/08/19 01:46:11;;;;;;;2.20;2.10;;;;;;;15.03;100.00;97971.66;5048875;28;21391;-70
2021/08/19 01:48:40;;;;;;;2.60;2.43;;;;;;;15.00;100.00;97966.72;5047642;28;20706;-71
2021/08/19 01:51:09;;;;;;;2.83;2.63;;;;;;;14.99;100.00;97956.22;5052579;28;20721;-71
2021/08/19 01:53:37;;;;;;;2.57;2.30;;;;;;;14.97;100.00;97968.91;5051791;28;20507;-72
2021/08/19 01:56:05;;;;;;;2.23;2.13;;;;;;;14.96;100.00;97956.59;5053229;28;20203;-70
2021/08/19 01:58:33;;;;;;;2.27;2.17;;;;;;;14.92;100.00;97964.16;5052646;28;20231;-70
2021/08/19 02:01:01;;;;;;;2.47;2.37;;;;;;;14.94;100.00;97966.63;5046149;28;20339;-70
2021/08/19 02:03:31;;;;;;;2.50;2.40;;;;;;;14.94;100.00;97963.97;5050450;28;20203;-71
2021/08/19 02:05:59;;;;;;;1.93;1.87;;;;;;;14.90;100.00;97961.69;5049254;28;20576;-70
2021/08/19 02:08:27;;;;;;;2.03;1.80;;;;;;;14.89;100.00;97970.72;5049956;28;20203;-70
2021/08/19 02:10:55;;;;;;;2.00;1.90;;;;;;;14.88;100.00;97962.88;5045603;28;20603;-71
2021/08/19 02:13:23;;;;;;;2.53;2.43;;;;;;;14.94;100.00;97959.44;5051929;28;20551;-70
2021/08/19 02:15:51;;;;;;;3.10;2.60;;;;;;;14.89;100.00;97961.88;5046411;28;20207;-71
2021/08/19 02:18:19;;;;;;;2.63;2.43;;;;;;;14.89;100.00;97965.38;5047787;28;20207;-70
2021/08/19 02:20:48;;;;;;;2.23;2.13;;;;;;;14.93;100.00;97965.00;5051805;28;20219;-70
2021/08/19 02:23:16;;;;;;;2.20;2.10;;;;;;;14.93;100.00;97965.00;5045378;28;20231;-69
2021/08/19 02:25:44;;;;;;;2.63;2.43;;;;;;;14.88;100.00;97962.88;5047424;28;20438;-70
2021/08/19 02:28:12;;;;;;;2.70;2.60;;;;;;;14.83;100.00;97958.16;5048243;28;20214;-70
2021/08/19 02:30:40;;;;;;;2.70;2.50;;;;;;;14.82;100.00;97963.66;5048338;28;20226;-70
2021/08/19 02:33:08;;;;;;;2.83;2.60;;;;;;;14.83;100.00;97955.47;5048307;28;20214;-70
2021/08/19 02:35:36;;;;;;;2.60;2.23;;;;;;;14.80;100.00;97966.53;5047448;28;20230;-70
2021/08/19 02:38:06;;;;;;;2.40;2.00;;;;;;;14.81;100.00;97978.03;5051117;28;20328;-69
2021/08/19 02:40:36;;;;;;;2.77;2.43;;;;;;;14.89;100.00;97964.53;5047531;28;20234;-71
2021/08/19 02:43:04;;;;;;;2.50;2.40;;;;;;;14.85;100.00;97965.94;5052173;28;20578;-69
2021/08/19 02:45:32;;;;;;;2.30;2.20;;;;;;;14.76;100.00;97958.09;5047779;28;20758;-71
2021/08/19 02:48:00;;;;;;;2.90;2.60;;;;;;;14.75;100.00;97961.75;5050758;28;20210;-70
2021/08/19 02:50:29;;;;;;;2.60;2.50;;;;;;;14.76;100.00;97960.75;5044469;28;20239;-68
2021/08/19 02:52:58;;;;;;;3.60;2.67;;;;;;;14.76;100.00;97960.75;5050047;28;20226;-70
2021/08/19 02:55:27;;;;;;;2.40;2.20;;;;;;;14.77;100.00;97958.88;5046056;28;20230;-70
2021/08/19 02:57:55;;;;;;;2.30;2.20;;;;;;;14.82;100.00;97959.16;5046964;28;20211;-70
2021/08/19 03:00:23;;;;;;;2.57;2.47;;;;;;;14.74;100.00;97956.59;5046986;28;20223;-70
2021/08/19 03:02:52;;;;;;;2.93;2.83;;;;;;;14.74;100.00;97954.78;5038955;28;20738;-69
2021/08/19 03:05:21;;;;;;;2.50;2.40;;;;;;;14.73;100.00;97954.97;5040683;28;20199;-69
2021/08/19 03:07:48;;;;;;;2.30;2.20;;;;;;;14.69;100.00;97956.34;5041822;28;20210;-70
2021/08/19 03:10:16;;;;;;;3.23;2.97;;;;;;;14.70;100.00;97953.53;5045054;28;20230;-70
2021/08/19 03:12:46;;;;;;;2.70;2.60;;;;;;;14.67;100.00;97945.03;5047203;28;20206;-71
2021/08/19 03:15:14;;;;;;;2.40;2.30;;;;;;;14.71;100.00;97957.00;5043415;28;20315;-70
2021/08/19 03:17:42;;;;;;;2.97;2.77;;;;;;;14.73;100.00;97953.13;5046354;28;20206;-70
2021/08/19 03:20:11;;;;;;;2.57;2.43;;;;;;;14.67;100.00;97951.22;5047516;28;20253;-71
2021/08/19 03:22:40;;;;;;;3.87;3.30;;;;;;;14.68;100.00;97955.53;5046276;28;20265;-70
2021/08/19 03:25:10;;;;;;;2.77;2.67;;;;;;;14.65;100.00;97958.56;5048379;28;20294;-69
2021/08/19 03:27:38;;;;;;;3.63;3.40;;;;;;;14.69;100.00;97956.34;5045454;28;20203;-70
2021/08/19 03:30:08;;;;;;;3.20;3.00;;;;;;;14.65;100.00;97953.25;5045607;28;20455;-69
2021/08/19 03:32:36;;;;;;;3.10;2.90;;;;;;;14.69;100.00;97957.19;5045641;28;20238;-71
2021/08/19 03:35:05;;;;;;;2.97;2.77;;;;;;;14.61;100.00;97951.97;5050549;28;20230;-69
2021/08/19 03:37:33;;;;;;;2.40;2.30;;;;;;;14.58;100.00;97950.50;5048782;28;20377;-71
2021/08/19 03:40:01;;;;;;;2.67;2.57;;;;;;;14.61;100.00;97952.78;5046332;28;20514;-69
2021/08/19 03:42:29;;;;;;;2.83;2.73;;;;;;;14.69;100.00;97953.66;5046810;28;20213;-70
2021/08/19 03:44:57;;;;;;;3.27;3.00;;;;;;;14.67;100.00;97953.03;5047424;28;20210;-70
2021/08/19 03:47:27;;;;;;;2.90;2.80;;;;;;;14.60;100.00;97948.47;5047713;28;20215;-70
2021/08/19 03:49:54;;;;;;;3.03;2.83;;;;;;;14.65;100.00;97960.41;5043872;28;20938;-70
2021/08/19 03:52:22;;;;;;;3.10;2.97;;;;;;;14.59;100.00;97964.69;5047272;28;20611;-69
2021/08/19 03:54:51;;;;;;;4.07;3.70;;;;;;;14.64;100.00;97959.59;5044324;28;20226;-70
2021/08/19 03:57:19;;;;;;;3.43;3.23;;;;;;;14.57;100.00;97964.00;5047186;28;20549;-70
2021/08/19 03:59:47;;;;;;;3.37;3.17;;;;;;;14.55;100.00;97955.38;5043634;28;20234;-71
2021/08/19 04:02:14;;;;;;;4.40;4.10;;;;;;;14.65;100.00;97947.06;5054087;28;20406;-71
2021/08/19 04:04:44;;;;;;;3.77;3.47;;;;;;;14.64;100.00;97953.41;5051785;28;20507;-69
2021/08/19 04:07:12;;;;;;;3.87;3.57;;;;;;;14.56;100.00;97952.53;5053527;28;20373;-71
2021/08/19 04:09:40;;;;;;;3.43;3.23;;;;;;;14.56;100.00;97951.69;5054828;28;20233;-70
2021/08/19 04:12:08;;;;;;;3.57;3.37;;;;;;;14.58;100.00;97955.00;5047165;28;20258;-71
2021/08/19 04:14:36;;;;;;;3.97;3.70;;;;;;;14.54;100.00;97959.91;5045371;28;20402;-70
2021/08/19 04:17:05;;;;;;;3.83;3.63;;;;;;;14.57;100.00;97956.84;5051170;28;20610;-69
2021/08/19 04:19:33;;;;;;;4.20;3.90;;;;;;;14.64;100.00;97954.25;5042919;28;20234;-69
2021/08/19 04:22:02;;;;;;;4.43;4.13;;;;;;;14.65;100.00;97958.56;5050936;28;20212;-69
2021/08/19 04:24:30;;;;;;;3.67;3.47;;;;;;;14.61;100.00;97958.13;5051160;28;20438;-71
2021/08/19 04:26:58;;;;;;;5.03;4.13;;;;;;;14.60;100.00;97961.81;5050435;28;20214;-71
2021/08/19 04:29:26;;;;;;;4.30;4.00;;;;;;;14.60;100.00;97966.31;5050163;28;20204;-70
2021/08/19 04:31:55;;;;;;;4.33;4.07;;;;;;;14.56;100.00;97968.53;5054123;28;20553;-68
2021/08/19 04:34:23;;;;;;;4.53;4.30;;;;;;;14.55;100.00;97968.72;5048205;28;20233;-67
2021/08/19 04:36:51;;;;;;;4.07;3.87;;;;;;;14.57;100.00;97977.34;5051368;28;20687;-68
2021/08/19 04:39:20;;;;;;;4.70;4.40;;;;;;;14.60;100.00;97969.81;5048114;28;20664;-68
2021/08/19 04:41:48;;;;;;;5.50;5.10;;;;;;;14.55;100.00;97961.56;5052413;28;20203;-68
2021/08/19 04:44:16;;;;;;;5.33;4.93;;;;;;;14.58;100.00;97961.16;5048320;28;20207;-67
2021/08/19 04:46:44;;;;;;;4.73;4.43;;;;;;;14.61;100.00;97960.78;5051337;28;20198;-67
2021/08/19 04:49:12;;;;;;;5.30;5.00;;;;;;;14.84;100.00;97969.63;5049428;28;20235;-68
2021/08/19 04:51:41;;;;;;;5.43;5.13;;;;;;;14.65;100.00;97960.41;5049031;28;20253;-67
2021/08/19 04:54:09;;;;;;;5.00;4.60;;;;;;;14.66;100.00;97968.22;5051546;28;20226;-67
2021/08/19 04:56:40;;;;;;;5.80;5.47;;;;;;;14.58;100.00;97963.84;5053208;28;20753;-68
2021/08/19 04:59:09;;;;;;;5.50;5.13;;;;;;;14.63;100.00;97963.28;5052130;28;20547;-67
2021/08/19 05:01:38;;;;;;;6.90;6.37;;;;;;;14.67;100.00;97967.22;5051023;28;20679;-67
2021/08/19 05:04:07;;;;;;;5.33;4.93;;;;;;;14.65;100.00;97966.56;5053084;28;20758;-68
2021/08/19 05:06:35;;;;;;;5.23;4.93;;;;;;;14.67;100.00;97963.69;5051961;28;20210;-69
2021/08/19 05:09:05;;;;;;;6.13;5.73;;;;;;;14.73;100.00;97969.13;5051176;28;20204;-68
2021/08/19 05:11:33;;;;;;;5.70;5.23;;;;;;;14.73;100.00;97966.47;5056027;28;20471;-67
2021/08/19 05:14:03;;;;;;;6.30;5.90;;;;;;;14.68;100.00;97966.19;5047512;28;20200;-68
2021/08/19 05:16:32;;;;;;;5.63;5.33;;;;;;;14.76;100.00;97966.09;5054915;28;20233;-69
2021/08/19 05:19:00;;;;;;;6.07;5.60;;;;;;;14.78;100.00;97963.25;5044703;28;20523;-67
2021/08/19 05:21:29;;;;;;;5.73;5.37;;;;;;;14.80;100.00;97963.03;5058445;28;20219;-67
2021/08/19 05:23:57;;;;;;;5.83;5.47;;;;;;;14.80;100.00;97963.88;5048312;28;20281;-67
2021/08/19 05:26:24;;;;;;;6.00;5.60;;;;;;;14.82;100.00;97963.66;5050463;28;20208;-67
2021/08/19 05:28:52;;;;;;;6.37;5.97;;;;;;;14.78;100.00;97968.56;5050237;28;20253;-68
2021/08/19 05:31:23;;;;;;;6.17;5.77;;;;;;;14.81;100.00;97970.84;5047576;28;20740;-67
2021/08/19 05:33:51;;;;;;;5.57;5.27;;;;;;;14.84;100.00;97970.47;5046845;28;20207;-68
2021/08/19 05:36:19;;;;;;;6.30;5.80;;;;;;;14.84;100.00;97967.81;5046589;28;20223;-68
2021/08/19 05:38:47;;;;;;;5.57;5.23;;;;;;;14.90;100.00;97968.84;5054795;28;20222;-67
2021/08/19 05:41:15;;;;;;;5.53;5.23;;;;;;;14.85;100.00;97974.78;5051416;28;20702;-67
2021/08/19 05:43:43;;;;;;;6.77;6.17;;;;;;;14.92;100.00;97964.16;5048050;28;20743;-67
2021/08/19 05:46:10;;;;;;;6.07;5.67;;;;;;;14.96;100.00;97976.09;5051556;28;20709;-69
2021/08/19 05:48:40;;;;;;;5.40;4.90;;;;;;;14.98;100.00;97979.41;5048679;28;20215;-67
2021/08/19 05:51:10;;;;;;;5.70;5.40;;;;;;;14.99;100.00;97983.72;5047605;28;20778;-67
2021/08/19 05:53:38;;;;;;;4.90;4.60;;;;;;;15.08;100.00;97987.06;5053839;28;20583;-67
2021/08/19 05:56:06;;;;;;;5.20;4.80;;;;;;;15.13;100.00;97989.97;5051339;28;20232;-68
2021/08/19 05:58:34;;;;;;;4.93;4.60;;;;;;;15.39;100.00;97987.72;5050110;28;20212;-67
2021/08/19 06:01:02;;;;;;;5.00;4.70;;;;;;;15.20;100.00;97998.03;5049548;28;20227;-68
2021/08/19 06:03:30;;;;;;;5.10;4.80;;;;;;;15.22;100.00;97985.31;5054536;28;20214;-67
2021/08/19 06:06:00;;;;;;;5.47;5.07;;;;;;;15.26;100.00;97994.59;5047156;28;20203;-68
2021/08/19 06:08:28;;;;;;;5.00;4.70;;;;;;;15.39;100.00;97993.06;5046325;28;20208;-68
2021/08/19 06:10:56;;;;;;;4.77;4.47;;;;;;;15.40;100.00;97997.38;5048640;28;20227;-66
2021/08/19 06:13:24;;;;;;;4.93;4.63;;;;;;;15.42;100.00;97995.34;5050788;28;20210;-66
2021/08/19 06:15:52;;;;;;;5.00;4.50;;;;;;;15.43;100.00;97997.78;5046430;28;20250;-67
2021/08/19 06:18:20;;;;;;;6.30;5.07;;;;;;;15.38;100.00;97996.75;5045837;28;20227;-68
2021/08/19 06:20:48;;;;;;;4.60;4.27;;;;;;;15.48;100.00;97992.69;5056311;28;20230;-69
2021/08/19 06:23:17;;;;;;;5.10;4.60;;;;;;;15.41;100.00;97991.81;5046733;28;20214;-68
2021/08/19 06:25:45;;;;;;;4.40;4.20;;;;;;;15.53;100.00;97986.78;5046425;28;20227;-67
2021/08/19 06:28:13;;;;;;;4.73;4.43;;;;;;;15.56;100.00;97989.06;5047157;28;20211;-67
2021/08/19 06:30:41;;;;;;;4.83;4.53;;;;;;;15.56;100.00;97986.38;5049383;28;20457;-67
2021/08/19 06:33:11;;;;;;;5.37;4.97;;;;;;;15.72;100.00;97985.22;5051102;28;20644;-68
2021/08/19 06:35:39;;;;;;;4.40;4.20;;;;;;;15.68;100.00;97991.16;5046778;28;20322;-68
2021/08/19 06:38:07;;;;;;;4.23;3.97;;;;;;;15.79;100.00;97987.94;5051390;28;20219;-67
2021/08/19 06:40:36;;;;;;;4.50;4.20;;;;;;;15.89;100.00;97991.09;5049612;28;20646;-66
2021/08/19 06:43:04;;;;;;;4.20;3.90;;;;;;;15.97;100.00;97987.44;5048837;28;20215;-68
2021/08/19 06:45:32;;;;;;;4.23;4.03;;;;;;;16.24;100.00;97997.41;5051469;28;20710;-68
2021/08/19 06:48:00;;;;;;;4.60;4.03;;;;;;;15.98;100.00;97985.59;5051276;28;20692;-68
2021/08/19 06:50:27;;;;;;;4.90;4.50;;;;;;;16.04;100.00;97992.81;5045513;28;20242;-67
2021/08/19 06:52:56;;;;;;;4.60;4.30;;;;;;;16.08;100.00;97991.38;5043093;28;20200;-67
2021/08/19 06:55:24;;;;;;;4.43;4.07;;;;;;;16.22;100.00;97994.13;5051047;28;20520;-68
2021/08/19 06:57:53;;;;;;;4.70;4.30;;;;;;;16.34;100.00;97992.50;5045660;28;20234;-68
2021/08/19 07:00:21;;;;;;;3.53;3.33;;;;;;;16.40;100.00;97989.03;5045716;28;20243;-68
2021/08/19 07:02:49;;;;;;;3.83;3.63;;;;;;;16.66;100.00;97995.47;5049711;28;20679;-68
2021/08/19 07:05:18;;;;;;;4.20;3.80;;;;;;;16.70;100.00;97991.34;5048724;28;20303;-68
2021/08/19 07:07:46;;;;;;;4.27;4.07;;;;;;;16.69;100.00;97996.91;5045747;28;20682;-66
2021/08/19 07:10:15;;;;;;;4.77;4.40;;;;;;;16.75;100.00;98004.94;5047338;28;20595;-67
2021/08/19 07:12:43;;;;;;;4.10;3.90;;;;;;;16.64;100.00;98002.88;5046426;28;20217;-67
2021/08/19 07:15:12;;;;;;;4.43;4.20;;;;;;;16.65;100.00;98009.88;5050355;28;20311;-67
2021/08/19 07:17:40;;;;;;;4.60;4.30;;;;;;;16.69;100.00;98003.09;5051236;28;20664;-68
2021/08/19 07:20:09;;;;;;;4.70;4.40;;;;;;;16.85;100.00;98007.22;5047528;28;20234;-68
2021/08/19 07:22:37;;;;;;;5.47;4.97;;;;;;;16.87;100.00;98005.16;5048027;28;20211;-67
2021/08/19 07:25:06;;;;;;;5.03;4.73;;;;;;;16.95;100.00;98004.16;5045629;28;20381;-67
2021/08/19 07:27:34;;;;;;;4.70;4.20;;;;;;;17.02;100.00;98004.16;5051619;28;20592;-67
2021/08/19 07:30:02;;;;;;;5.00;4.67;;;;;;;16.96;100.00;98010.31;5049903;28;20230;-67
2021/08/19 07:32:31;;;;;;;4.60;4.20;;;;;;;17.21;100.00;98008.72;5048189;28;20221;-68
2021/08/19 07:34:59;;;;;;;4.83;4.53;;;;;;;17.07;100.00;97999.84;5046806;28;20254;-68
2021/08/19 07:37:27;;;;;;;4.03;3.83;;;;;;;17.09;100.00;98010.38;5047235;28;20227;-67
2021/08/19 07:39:55;;;;;;;4.27;3.87;;;;;;;17.08;100.00;98006.03;5043926;28;20314;-67
2021/08/19 07:42:23;;;;;;;4.07;3.87;;;;;;;17.37;100.00;98009.31;5043245;28;20207;-67
2021/08/19 07:44:51;;;;;;;4.27;3.70;;;;;;;17.54;100.00;98020.41;5046868;28;20206;-67
2021/08/19 07:47:21;;;;;;;3.77;3.57;;;;;;;17.67;100.00;98006.19;5050766;28;20199;-66
2021/08/19 07:49:50;;;;;;;3.40;3.20;;;;;;;17.77;100.00;98006.56;5048585;28;20227;-68
2021/08/19 07:52:18;;;;;;;4.03;3.83;;;;;;;17.72;100.00;98006.38;5042313;28;20937;-67
2021/08/19 07:54:46;;;;;;;4.30;4.00;;;;;;;17.39;100.00;98004.56;5043629;28;20222;-67
2021/08/19 07:57:14;;;;;;;4.10;3.80;;;;;;;17.32;100.00;98009.94;5050479;28;20947;-67
2021/08/19 07:59:42;;;;;;;4.03;3.57;;;;;;;17.35;100.00;98009.53;5051146;28;20318;-68
2021/08/19 08:02:21;;;;;;;4.10;3.70;;;;;;;17.49;100.00;98013.03;5051319;28;20256;-68
2021/08/19 08:04:50;;;;;;;3.97;3.77;;;;;;;17.49;100.00;98002.31;5046761;28;20207;-69
2021/08/19 08:07:18;;;;;;;3.40;3.20;;;;;;;17.52;100.00;98021.66;5047519;28;20218;-68
2021/08/19 08:09:46;;;;;;;3.77;3.47;;;;;;;17.52;100.00;98019.00;5047920;28;20227;-68
2021/08/19 08:12:14;;;;;;;3.30;3.03;;;;;;;17.06;100.00;98006.22;5047268;28;20214;-67
2021/08/19 08:14:42;;;;;;;3.57;3.27;;;;;;;17.05;100.00;98014.50;5043059;28;20203;-67
2021/08/19 08:17:10;;;;;;;3.60;3.40;;;;;;;16.83;100.00;98019.97;5045383;28;20237;-68
2021/08/19 08:19:39;;;;;;;3.20;3.10;;;;;;;16.60;100.00;98033.72;5048179;28;20237;-68
2021/08/19 08:22:08;;;;;;;3.43;3.33;;;;;;;16.63;100.00;98034.13;5044414;28;20203;-69
2021/08/19 08:24:36;;;;;;;3.53;3.33;;;;;;;16.57;100.00;98028.78;5046672;28;20372;-68
2021/08/19 08:27:04;;;;;;;3.87;3.60;;;;;;;16.70;100.00;98030.69;5049080;28;20226;-67
2021/08/19 08:29:32;;;;;;;3.77;3.33;;;;;;;16.82;100.00;98028.19;5049551;28;20231;-67
2021/08/19 08:32:05;;;;;;;3.70;3.47;;;;;;;17.04;100.00;98029.72;5046547;28;20210;-68
2021/08/19 08:34:35;;;;;;;3.73;3.53;;;;;;;17.41;100.00;98028.47;5048825;28;20712;-69
2021/08/19 08:37:03;;;;;;;3.27;3.07;;;;;;;17.67;100.00;98032.16;5046064;28;20631;-70
2021/08/19 08:39:34;;;;;;;3.03;2.93;;;;;;;17.89;100.00;98038.09;5052356;28;20211;-68
2021/08/19 08:42:06;;;;;;;3.10;2.97;;;;;;;17.93;100.00;98034.75;5041501;28;20210;-68
2021/08/19 08:44:34;;;;;;;3.50;3.30;;;;;;;18.11;100.00;98029.78;5047695;28;20211;-69
2021/08/19 08:47:03;;;;;;;3.60;3.40;;;;;;;18.21;100.00;98032.88;5048016;28;20207;-69
2021/08/19 08:49:31;;;;;;;3.53;3.10;;;;;;;18.33;100.00;98023.09;5047722;28;20582;-68
2021/08/19 08:51:59;;;;;;;3.20;2.90;;;;;;;18.30;100.00;98026.22;5046585;28;20776;-68
2021/08/19 08:54:29;;;;;;;3.53;3.33;;;;;;;18.03;100.00;98037.03;5055369;28;20207;-67
2021/08/19 08:56:59;;;;;;;3.40;3.20;;;;;;;17.78;100.00;98031.50;5052970;28;20203;-69
2021/08/19 08:59:27;;;;;;;3.40;2.87;;;;;;;17.79;100.00;98033.97;5053457;28;20204;-70
2021/08/19 09:01:56;;;;;;;3.23;3.07;;;;;;;18.12;100.00;98029.59;5049272;28;20195;-71
2021/08/19 09:04:24;;;;;;;3.33;2.83;;;;;;;18.20;100.00;98029.34;5046518;28;20594;-71
2021/08/19 09:06:52;;;;;;;3.30;3.07;;;;;;;18.26;100.00;98032.22;5049716;28;20204;-71
2021/08/19 09:09:22;;;;;;;3.23;3.03;;;;;;;18.21;100.00;98033.66;5049988;28;20227;-69
2021/08/19 09:11:53;;;;;;;3.20;2.90;;;;;;;18.24;100.00;98027.06;5049622;28;20208;-70
2021/08/19 09:14:24;;;;;;;2.93;2.83;;;;;;;18.35;100.00;98026.41;5049247;28;20314;-69
2021/08/19 09:16:53;;;;;;;3.53;3.23;;;;;;;18.44;100.00;98024.28;5048591;28;20203;-70
2021/08/19 09:19:22;;;;;;;2.60;2.50;;;;;;;18.63;100.00;98025.22;5050710;28;20246;-70
2021/08/19 09:21:52;;;;;;;3.07;2.87;;;;;;;19.13;100.00;98025.53;5048189;28;20219;-71
2021/08/19 09:24:21;;;;;;;2.90;2.70;;;;;;;19.22;100.00;98018.84;5049131;28;20207;-71
2021/08/19 09:26:51;;;;;;;3.03;2.83;;;;;;;19.44;100.00;98026.50;5048351;28;20212;-69
2021/08/19 09:29:21;;;;;;;3.50;3.20;;;;;;;19.62;100.00;98014.97;5050800;28;20583;-69
2021/08/19 09:31:52;;;;;;;4.13;3.20;;;;;;;19.92;100.00;98016.97;5049323;28;20212;-71
2021/08/19 09:34:21;;;;;;;2.57;2.47;;;;;;;19.79;100.00;98015.22;5056037;28;20203;-71
2021/08/19 09:36:59;;;;;;;2.30;2.20;;;;;;;19.57;100.00;98012.13;5047530;28;20664;-70
2021/08/19 09:39:38;;;;;;;2.00;1.90;;;;;;;19.82;98.11;98006.69;5046435;28;20230;-70
2021/08/19 09:42:07;;;;;;;2.07;1.97;;;;;;;19.42;100.00;98009.78;5046927;28;20695;-72
2021/08/19 09:44:36;;;;;;;2.37;2.27;;;;;;;19.41;100.00;98006.28;5050878;28;20461;-70
2021/08/19 09:47:07;;;;;;;2.33;2.13;;;;;;;19.14;100.00;97997.66;5055250;28;20216;-71
2021/08/19 09:49:37;;;;;;;2.30;2.10;;;;;;;18.88;100.00;98005.63;5054183;28;20228;-70
2021/08/19 09:52:07;;;;;;;2.20;2.10;;;;;;;18.89;100.00;98004.59;5047793;28;20199;-73
2021/08/19 09:54:36;;;;;;;2.30;2.20;;;;;;;19.38;100.00;98009.41;5049313;28;20290;-71
2021/08/19 09:57:05;;;;;;;1.90;1.80;;;;;;;19.60;100.00;98007.13;5049886;28;20200;-71
2021/08/19 09:59:38;;;;;;;2.20;2.10;;;;;;;19.73;100.00;97989.22;5052342;28;20269;-72
2021/08/19 10:02:08;;;;;;;2.20;2.10;;;;;;;19.65;100.00;97999.22;5048811;28;20208;-73
2021/08/19 10:04:36;;;;;;;1.70;1.70;;;;;;;19.72;100.00;98006.41;5051891;28;20234;-71
2021/08/19 10:07:05;;;;;;;2.10;2.00;;;;;;;19.71;98.56;97996.69;5045019;28;20211;-69
2021/08/19 10:09:33;;;;;;;3.27;1.70;;;;;;;19.58;99.86;98013.78;5052211;28;20718;-70
2021/08/19 10:12:01;;;;;;;2.20;1.97;;;;;;;19.62;100.00;98012.28;5048268;28;20208;-72
2021/08/19 10:14:31;;;;;;;2.23;2.07;;;;;;;19.67;100.00;98001.69;5050740;28;20207;-72
2021/08/19 10:16:59;;;;;;;1.70;1.70;;;;;;;19.92;100.00;98009.72;5050270;28;20211;-71
2021/08/19 10:19:33;;;;;;;2.07;1.97;;;;;;;19.77;98.10;98002.00;5048899;28;20250;-72
2021/08/19 10:22:06;;;;;;;1.60;1.60;;;;;;;19.71;100.00;98002.06;5048978;28;20203;-70
2021/08/19 10:24:36;;;;;;;1.87;1.73;;;;;;;19.54;100.00;98013.41;5052798;28;20200;-71
2021/08/19 10:27:09;;;;;;;1.83;1.40;;;;;;;19.32;100.00;98018.34;5050613;28;20223;-71
2021/08/19 10:29:46;;;;;;;1.50;1.47;;;;;;;18.98;100.00;98012.44;5050046;28;20226;-69
2021/08/19 10:32:22;;;;;;;1.43;1.43;;;;;;;18.86;100.00;98013.09;5046091;28;21117;-70
2021/08/19 10:34:57;;;;;;;1.70;1.60;;;;;;;19.12;100.00;98002.38;5045470;28;20200;-70
2021/08/19 10:38:03;;;;;;;1.70;1.60;;;;;;;19.16;100.00;98017.06;5046487;28;20203;-70
2021/08/19 10:40:40;;;;;;;2.50;1.93;;;;;;;19.52;100.00;98012.81;5047165;28;20634;-69
2021/08/19 10:43:45;;;;;;;2.17;2.07;;;;;;;20.01;98.53;98007.53;5044695;28;20204;-70
2021/08/19 10:46:16;;;;;;;1.80;1.70;;;;;;;20.18;95.22;98009.63;5048977;28;20230;-69
2021/08/19 10:48:46;;;;;;;1.33;1.33;;;;;;;19.86;92.82;98005.19;5046174;28;20294;-70
2021/08/19 10:51:16;;;;;;;1.77;1.40;;;;;;;20.32;91.34;98002.22;5046591;28;20234;-69
2021/08/19 10:53:44;;;;;;;1.93;1.10;;;;;;;20.50;86.83;97999.47;5048393;28;20207;-70
2021/08/19 10:56:12;;;;;;;1.90;1.30;;;;;;;20.77;85.53;98003.66;5049028;28;20211;-70
2021/08/19 10:58:42;;;;;;;1.60;1.60;;;;;;;20.60;86.23;98001.63;5047878;28;20671;-69
2021/08/19 11:01:25;;;;;;;1.10;1.10;;;;;;;20.41;89.96;97998.16;5045373;28;20418;-69
2021/08/19 11:03:54;;;;;;;1.77;1.67;;;;;;;20.51;88.39;98003.00;5045412;28;20203;-70
2021/08/19 11:06:26;;;;;;;1.87;1.77;;;;;;;20.38;89.54;98002.09;5044576;28;20615;-70
2021/08/19 11:08:55;;;;;;;2.00;1.90;;;;;;;20.15;90.39;98008.22;5043007;28;20707;-70
2021/08/19 11:11:28;;;;;;;1.70;1.63;;;;;;;19.88;91.48;98005.78;5048998;28;20232;-69
2021/08/19 11:14:00;;;;;;;2.00;1.90;;;;;;;19.76;94.02;97994.97;5047283;28;20198;-69
2021/08/19 11:16:28;;;;;;;2.33;1.80;;;;;;;19.56;95.79;98005.94;5046721;28;20216;-69
2021/08/19 11:19:14;;;;;;;2.00;1.90;;;;;;;19.35;97.60;98010.66;5047433;28;20215;-70
2021/08/19 11:21:44;;;;;;;1.93;1.80;;;;;;;19.38;95.60;98012.91;5044826;28;20736;-69
2021/08/19 11:24:12;;;;;;;1.37;1.27;;;;;;;19.19;100.00;98001.31;5044729;28;20215;-69
2021/08/19 11:26:40;;;;;;;1.83;1.73;;;;;;;19.08;98.33;98005.50;5049142;28;22225;-69
2021/08/19 11:29:08;;;;;;;1.77;1.67;;;;;;;19.11;98.48;98000.75;5044270;28;20203;-69
2021/08/19 11:31:38;;;;;;;2.20;1.73;;;;;;;19.33;98.04;98003.91;5045751;28;20238;-71
2021/08/19 11:34:06;;;;;;;1.90;1.80;;;;;;;19.35;98.79;98001.81;5046261;28;20207;-70
2021/08/19 11:36:36;;;;;;;2.80;2.37;;;;;;;19.57;97.37;97994.16;5047580;28;20533;-69